Time;durP1;ratioP1;P1;durP2;ratioP2;P2;SDS_P1;SDS_P2;PMS_P1;PMS_P2;Temp;Humidity;BMP_temperature;BMP_pressure;BME280_temperature;BME280_humidity;BME280_pressure;Samples;Min_cycle;Max_cycle;Signal;HPM_P1;HPM_P2
2022/08/11 00:02:00;;;;;;;3.13;2.83;;;22.20;33.20;;;24.75;26.76;98052.66;5065813;28;20059;-47
2022/08/11 00:04:35;;;;;;;4.63;2.38;;;22.10;33.30;;;24.68;26.78;98051.16;5066698;28;20044;-46
2022/08/11 00:07:05;;;;;;;2.83;2.30;;;22.00;34.60;;;24.60;26.99;98041.47;5064220;28;20066;-46
2022/08/11 00:09:37;;;;;;;3.50;2.70;;;21.90;33.90;;;24.53;27.31;98048.97;5065318;28;20052;-45
2022/08/11 00:12:17;;;;;;;2.60;2.40;;;21.80;34.30;;;24.50;27.19;98050.22;5065806;28;20051;-47
2022/08/11 00:14:57;;;;;;;3.65;2.40;;;21.80;34.90;;;24.44;27.40;98047.66;5064926;28;20045;-49
2022/08/11 00:17:32;;;;;;;2.88;2.40;;;21.70;34.60;;;24.40;27.42;98052.75;5064761;28;20057;-43
2022/08/11 00:20:11;;;;;;;3.70;2.60;;;21.70;35.00;;;24.34;27.36;98048.28;5064789;28;20369;-43
2022/08/11 00:22:47;;;;;;;2.63;2.42;;;21.60;34.80;;;24.30;27.54;98044.38;5065373;28;20057;-46
2022/08/11 00:25:19;;;;;;;4.05;2.67;;;21.60;34.70;;;24.29;27.48;98042.72;5070851;28;20062;-43
2022/08/11 00:27:48;;;;;;;3.78;2.65;;;21.70;34.50;;;24.29;27.52;98046.28;5070010;28;20071;-44
2022/08/11 00:30:16;;;;;;;3.30;2.60;;;21.80;34.20;;;24.29;27.83;98050.88;5069849;28;20045;-46
2022/08/11 00:32:55;;;;;;;3.65;2.58;;;21.80;34.20;;;24.32;27.58;98050.41;5070046;28;20048;-44
2022/08/11 00:35:29;;;;;;;3.65;2.67;;;21.80;34.70;;;24.30;27.65;98058.00;5071105;28;20048;-46
2022/08/11 00:38:24;;;;;;;4.43;2.83;;;21.80;34.50;;;24.28;27.88;98055.50;5070148;28;20700;-42
2022/08/11 00:41:15;;;;;;;3.97;3.17;;;21.70;34.90;;;24.22;27.69;98061.09;5067742;28;20060;-42
2022/08/11 00:44:10;;;;;;;2.50;2.30;;;21.60;35.20;;;24.18;27.98;98055.31;5069807;28;20397;-45
2022/08/11 00:47:02;;;;;;;5.10;3.00;;;21.60;35.10;;;24.13;27.83;98057.91;5070285;28;20056;-44
2022/08/11 00:50:12;;;;;;;3.05;2.55;;;21.50;35.40;;;24.06;27.94;98052.59;5069647;28;20058;-42
2022/08/11 00:53:25;;;;;;;4.32;3.15;;;21.40;36.00;;;24.01;28.09;98044.31;5069008;28;20059;-44
2022/08/11 00:56:07;;;;;;;3.03;2.72;;;21.30;35.90;;;23.97;27.86;98048.56;5069314;28;20238;-45
2022/08/11 00:59:06;;;;;;;3.95;3.15;;;21.30;35.60;;;23.93;27.90;98053.66;5069137;28;20049;-43
2022/08/11 01:02:04;;;;;;;4.00;3.05;;;21.30;35.40;;;23.92;28.04;98053.91;5084425;28;20064;-42
2022/08/11 01:04:56;;;;;;;2.92;2.60;;;21.30;35.80;;;23.87;28.25;98051.91;5068228;28;20058;-44
2022/08/11 01:08:29;;;;;;;3.40;3.10;;;21.20;36.50;;;23.86;28.36;98049.41;5069310;28;20052;-43
2022/08/11 01:11:37;;;;;;;4.38;2.58;;;21.20;36.60;;;23.83;28.39;98045.28;5068435;28;20060;-46
2022/08/11 01:15:02;;;;;;;3.55;2.47;;;21.20;36.00;;;23.82;28.44;98051.78;5084341;28;20052;-43
2022/08/11 01:18:16;;;;;;;4.13;3.30;;;21.10;36.10;;;23.76;28.73;98048.06;5068356;28;20059;-43
2022/08/11 01:21:34;;;;;;;4.50;3.40;;;21.10;36.80;;;23.76;28.50;98055.41;5069578;28;20056;-44
2022/08/11 01:24:42;;;;;;;3.40;3.08;;;21.10;36.90;;;23.72;28.43;98048.78;5048327;28;20072;-44
2022/08/11 01:27:16;;;;;;;3.35;3.05;;;21.10;37.00;;;23.64;28.67;98055.41;5069615;28;20066;-46
2022/08/11 01:30:23;;;;;;;4.78;3.08;;;21.00;36.20;;;23.62;28.81;98054.00;5069340;28;20044;-43
2022/08/11 01:33:38;;;;;;;4.20;2.35;;;20.90;37.10;;;23.57;28.44;98052.81;5068802;28;20056;-44
2022/08/11 01:36:47;;;;;;;3.58;2.88;;;20.90;37.20;;;23.52;28.62;98052.69;5070157;28;20216;-44
2022/08/11 01:39:45;;;;;;;3.55;2.75;;;20.80;36.50;;;23.43;28.94;98045.13;5070005;28;20079;-43
2022/08/11 01:45:58;;;;;;;4.55;3.03;;;20.70;37.70;;;23.35;29.16;98040.84;5069664;28;20053;-45
2022/08/11 01:48:59;;;;;;;3.13;2.70;;;20.70;37.70;;;23.34;29.18;98036.47;5067659;28;20228;-42
2022/08/11 01:52:29;;;;;;;4.18;2.50;;;20.70;37.80;;;23.31;29.32;98037.78;5069511;28;20362;-46
2022/08/11 01:55:25;;;;;;;4.22;2.70;;;20.60;38.00;;;23.26;29.29;98040.34;5065912;28;20392;-43
2022/08/11 01:58:15;;;;;;;3.85;2.78;;;20.50;37.80;;;23.21;29.19;98051.09;5066472;28;20052;-42
2022/08/11 02:01:23;;;;;;;3.90;2.97;;;20.50;38.00;;;23.16;29.43;98048.25;5068511;28;20045;-42
2022/08/11 02:04:30;;;;;;;3.42;2.80;;;20.50;38.00;;;23.15;29.44;98035.75;5066625;28;20048;-43
2022/08/11 02:07:26;;;;;;;5.43;3.03;;;20.40;38.10;;;23.11;29.42;98053.53;5069176;28;20059;-43
2022/08/11 02:14:13;;;;;;;3.25;2.95;;;20.40;37.70;;;23.05;29.29;98057.19;5067868;28;20767;-43
2022/08/11 02:17:21;;;;;;;6.68;3.05;;;20.30;38.60;;;22.97;29.67;98061.88;5045683;28;20057;-43
2022/08/11 02:26:30;;;;;;;3.25;2.80;;;20.30;39.40;;;22.84;30.31;98042.22;5067669;28;20056;-42
2022/08/11 02:30:03;;;;;;;4.15;3.45;;;20.20;39.20;;;22.79;30.24;98046.44;5066544;28;20048;-42
2022/08/11 02:36:23;;;;;;;4.22;2.90;;;20.10;39.40;;;22.67;30.66;98034.72;5067886;28;20064;-42
2022/08/11 02:39:02;;;;;;;6.75;4.13;;;19.90;39.70;;;22.60;30.64;98033.97;5056064;28;20075;-43
2022/08/11 02:45:08;;;;;;;3.72;2.78;;;19.80;40.10;;;22.56;30.58;98033.59;5068285;28;20254;-43
2022/08/11 02:49:52;;;;;;;;;;;19.80;40.10;;;22.68;30.26;98028.25;5067446;28;20082;-47
2022/08/11 02:51:16;;;;;;;3.60;3.15;;;19.60;41.30;;;22.52;30.88;98031.59;5067685;28;19924;-42
2022/08/11 02:54:31;;;;;;;7.10;3.00;;;19.60;40.10;;;22.41;30.83;98030.47;5059327;28;20056;-44
2022/08/11 02:57:11;;;;;;;4.38;2.85;;;19.60;41.30;;;22.32;31.43;98037.28;5066599;28;20060;-43
2022/08/11 03:00:09;;;;;;;3.47;2.78;;;19.50;40.40;;;22.30;31.49;98037.50;5067305;28;20487;-43
2022/08/11 03:02:48;;;;;;;6.00;3.83;;;19.50;42.00;;;22.25;31.60;98036.50;5067428;28;20044;-44
2022/08/11 03:05:56;;;;;;;6.93;3.10;;;19.40;41.30;;;22.19;31.85;98032.78;5067926;28;20040;-44
2022/08/11 03:08:50;;;;;;;7.20;3.63;;;19.30;42.10;;;22.15;31.93;98040.53;5065137;28;20239;-43
2022/08/11 03:18:40;;;;;;;3.65;3.13;;;19.20;41.40;;;21.95;32.37;98037.25;5043103;28;20063;-43
2022/08/11 03:21:35;;;;;;;4.53;3.42;;;19.10;42.50;;;21.90;32.18;98035.19;5029806;28;20057;-42
2022/08/11 03:25:02;;;;;;;7.45;3.70;;;19.10;43.40;;;21.85;32.34;98031.50;5065926;28;20055;-43
2022/08/11 03:28:04;;;;;;;4.88;3.50;;;18.90;43.90;;;21.81;32.20;98040.09;5066021;28;20283;-43
2022/08/11 03:30:54;;;;;;;4.45;3.45;;;19.00;43.80;;;21.75;32.49;98046.41;5065636;28;20048;-45
2022/08/11 03:43:25;;;;;;;3.90;3.58;;;18.70;43.50;;;21.55;33.18;98053.88;5067055;28;20375;-43
2022/08/11 03:46:23;;;;;;;6.30;3.55;;;18.70;43.50;;;21.53;32.92;98056.78;5067774;28;20048;-43
2022/08/11 03:49:30;;;;;;;7.53;3.67;;;18.80;44.50;;;21.55;33.04;98057.41;5066580;28;20050;-44
2022/08/11 03:52:36;;;;;;;7.20;3.80;;;18.80;44.10;;;21.62;32.71;98060.06;5029025;28;20056;-42
2022/08/11 03:55:30;;;;;;;6.88;3.38;;;18.80;44.20;;;21.56;32.95;98055.53;5066826;28;20354;-43
2022/08/11 03:58:17;;;;;;;6.97;3.53;;;18.80;43.30;;;21.54;33.00;98060.31;5066111;28;20325;-42
2022/08/11 04:01:31;;;;;;;5.97;3.13;;;18.80;44.30;;;21.53;33.00;98055.97;5067740;28;20234;-43
2022/08/11 04:04:55;;;;;;;4.45;3.05;;;18.80;44.30;;;21.54;33.11;98055.75;5065854;28;20051;-43
2022/08/11 04:08:00;;;;;;;3.90;3.00;;;18.70;44.50;;;21.49;33.08;98052.88;5066161;28;20060;-44
2022/08/11 04:10:46;;;;;;;4.80;3.47;;;18.70;44.50;;;21.42;33.44;98052.91;5066300;28;20347;-43
2022/08/11 04:15:58;;;;;;;5.45;3.70;;;18.70;43.50;;;21.46;33.52;98052.50;5065362;28;20056;-44
2022/08/11 04:17:25;;;;;;;7.53;3.78;;;18.70;44.80;;;21.48;33.51;98051.25;5066297;28;20254;-43
2022/08/11 04:20:14;;;;;;;4.82;3.45;;;18.70;44.80;;;21.45;33.27;98050.84;5067190;28;20269;-42
2022/08/11 04:23:34;;;;;;;4.05;3.60;;;18.60;44.10;;;21.41;33.30;98051.25;5065574;28;20052;-42
2022/08/11 04:26:40;;;;;;;4.10;3.70;;;18.60;44.70;;;21.39;33.40;98049.81;5067154;28;20068;-46
2022/08/11 04:29:28;;;;;;;3.88;3.47;;;18.60;44.60;;;21.37;33.41;98054.63;5065161;28;20055;-44
2022/08/11 04:32:40;;;;;;;6.20;4.07;;;18.60;44.50;;;21.35;33.64;98056.72;5065463;28;20250;-44
2022/08/11 04:35:44;;;;;;;8.07;3.53;;;18.60;44.10;;;21.36;33.63;98045.66;5066830;28;20369;-44
2022/08/11 04:39:18;;;;;;;3.75;3.28;;;18.60;44.80;;;21.38;33.43;98043.59;5066542;28;20052;-44
2022/08/11 04:45:55;;;;;;;4.10;3.22;;;18.60;44.30;;;21.40;33.24;98055.03;5044646;28;20052;-44
2022/08/11 05:01:42;;;;;;;6.38;3.40;;;18.60;44.50;;;21.36;34.11;98048.34;5064673;28;20045;-43
2022/08/11 05:08:02;;;;;;;3.95;3.20;;;18.70;44.20;;;21.44;34.13;98068.94;5066277;28;20048;-43
2022/08/11 05:11:23;;;;;;;4.50;3.85;;;18.80;44.30;;;21.47;34.38;98062.28;5066996;28;20071;-42
2022/08/11 05:35:59;;;;;;;6.05;3.58;;;19.20;44.50;;;21.81;34.24;98074.50;5069368;28;20134;-43
2022/08/11 05:58:42;;;;;;;7.65;3.60;;;19.60;43.40;;;22.16;33.93;98071.22;5067570;28;20049;-48
2022/08/11 06:01:20;;;;;;;4.20;3.17;;;19.70;44.00;;;22.16;33.86;98074.75;5068398;28;20357;-48
2022/08/11 06:07:08;;;;;;;4.82;3.20;;;19.80;43.10;;;22.34;33.51;98081.25;5066937;28;20078;-45
2022/08/11 06:09:43;;;;;;;5.07;3.47;;;19.90;42.90;;;22.39;33.86;98079.53;5066079;28;20052;-44
2022/08/11 06:12:23;;;;;;;6.55;3.63;;;19.90;43.10;;;22.44;33.81;98073.41;5067697;28;20373;-45
2022/08/11 06:14:55;;;;;;;4.82;3.10;;;20.00;43.10;;;22.46;33.75;98076.72;5066350;28;20060;-47
2022/08/11 06:17:30;;;;;;;6.22;3.03;;;20.00;42.80;;;22.53;33.66;98080.19;5067680;28;20056;-46
2022/08/11 06:20:11;;;;;;;6.43;3.75;;;20.00;42.70;;;22.57;33.45;98072.44;5067987;28;20060;-48
2022/08/11 06:22:44;;;;;;;4.05;3.65;;;20.10;42.90;;;22.60;33.47;98077.38;5065869;28;20346;-44
2022/08/11 06:25:18;;;;;;;6.00;3.30;;;20.10;42.70;;;22.64;33.58;98075.88;5068926;28;20135;-47
2022/08/11 06:27:55;;;;;;;10.40;4.05;;;20.20;42.50;;;22.68;33.41;98071.66;5068514;28;20340;-44
2022/08/11 06:30:42;;;;;;;5.82;3.75;;;20.30;42.80;;;22.72;33.58;98075.56;5065183;28;20056;-46
2022/08/11 06:33:28;;;;;;;4.82;3.60;;;20.30;42.80;;;22.78;33.69;98087.41;5067662;28;20045;-46
2022/08/11 06:36:22;;;;;;;5.15;3.30;;;20.40;42.40;;;22.84;33.14;98085.63;5066628;28;20242;-50
2022/08/11 06:39:19;;;;;;;5.10;3.85;;;20.40;42.40;;;22.94;33.12;98084.03;5065164;28;20055;-46
2022/08/11 06:42:02;;;;;;;4.97;3.17;;;20.50;42.60;;;22.99;33.15;98083.34;5066921;28;20058;-48
2022/08/11 06:45:10;;;;;;;4.70;3.58;;;20.50;42.30;;;23.09;33.24;98082.81;5052024;28;20056;-46
2022/08/11 06:47:48;;;;;;;5.00;3.38;;;20.50;42.60;;;23.09;33.09;98082.81;5067252;28;20062;-47
2022/08/11 06:53:09;;;;;;;4.82;3.80;;;20.60;42.30;;;23.15;33.04;98082.72;5067069;28;20060;-46
2022/08/11 07:02:04;;;;;;;8.13;3.80;;;20.70;41.60;;;23.28;33.15;98086.28;5066006;28;20191;-44
2022/08/11 07:04:42;;;;;;;5.30;3.65;;;20.80;42.00;;;23.30;32.92;98095.88;5065479;28;20385;-46
2022/08/11 07:16:58;;;;;;;5.57;3.58;;;20.90;42.60;;;23.26;33.07;98091.13;5084354;28;20048;-45
2022/08/11 07:31:40;;;;;;;5.10;4.03;;;21.20;41.90;;;23.66;33.13;98076.91;5078876;28;20058;-45
2022/08/11 07:34:36;;;;;;;4.88;3.72;;;21.30;41.60;;;23.72;33.10;98076.78;5083720;28;20319;-44
2022/08/11 07:37:15;;;;;;;4.20;3.80;;;21.30;41.40;;;23.76;32.87;98077.16;5095299;28;20048;-46
2022/08/11 07:39:45;;;;;;;6.65;4.43;;;21.40;41.40;;;23.78;33.18;98077.78;5112877;28;20326;-46
2022/08/11 07:42:21;;;;;;;5.43;3.40;;;21.50;41.70;;;23.86;33.14;98079.31;5084625;28;20052;-44
2022/08/11 07:53:23;;;;;;;6.57;3.50;;;21.70;41.00;;;24.13;32.64;98069.59;5107307;28;20056;-47
2022/08/11 07:55:56;;;;;;;4.20;3.13;;;21.80;40.80;;;24.17;32.56;98076.25;5097596;28;21170;-43
2022/08/11 08:18:23;;;;;;;4.75;3.35;;;22.40;40.20;;;24.67;32.12;98065.84;5099014;28;20050;-46
2022/08/11 08:21:10;;;;;;;6.22;3.78;;;22.40;40.00;;;24.69;32.14;98072.69;5102474;28;20234;-48
2022/08/11 08:23:45;;;;;;;4.65;3.80;;;22.40;40.00;;;24.75;32.09;98069.00;5101000;28;20035;-44
2022/08/11 08:31:55;;;;;;;6.78;3.60;;;22.50;40.00;;;24.86;32.07;98066.50;5101206;28;20371;-46
2022/08/11 08:34:24;;;;;;;5.20;3.95;;;22.60;40.00;;;24.92;31.66;98071.78;5095846;28;20044;-44
2022/08/11 08:36:54;;;;;;;3.95;3.53;;;22.70;40.00;;;24.99;32.06;98073.53;5079500;28;20051;-47
2022/08/11 08:39:28;;;;;;;6.35;3.42;;;22.70;39.90;;;25.05;31.83;98070.66;5091605;28;20242;-45
2022/08/11 08:42:01;;;;;;;5.13;4.00;;;22.80;39.70;;;25.13;31.67;98075.72;5101556;28;20048;-46
2022/08/11 08:44:35;;;;;;;4.47;3.70;;;22.90;39.70;;;25.20;31.32;98061.91;5099442;28;20050;-44
2022/08/11 08:47:15;;;;;;;5.13;3.25;;;23.00;39.60;;;25.28;31.24;98060.72;5104628;28;20066;-44
2022/08/11 08:50:10;;;;;;;4.68;4.07;;;23.00;39.20;;;25.40;31.66;98066.13;5104502;28;20350;-49
2022/08/11 08:53:03;;;;;;;4.43;3.45;;;23.10;39.40;;;25.50;31.44;98063.56;5091648;28;20048;-49
2022/08/11 08:55:33;;;;;;;5.15;3.78;;;23.30;39.00;;;25.56;31.46;98062.56;5100790;28;20315;-45
2022/08/11 08:58:02;;;;;;;10.95;3.97;;;23.30;39.00;;;25.62;31.26;98058.03;5117762;28;20044;-46
2022/08/11 09:00:41;;;;;;;3.85;3.47;;;23.40;39.50;;;25.72;30.95;98063.63;5100901;28;20350;-43
2022/08/11 09:03:11;;;;;;;4.15;3.10;;;23.50;38.30;;;25.77;30.98;98055.53;5098141;28;20067;-48
2022/08/11 09:05:59;;;;;;;3.60;3.30;;;23.50;38.40;;;25.83;30.86;98054.53;5100549;28;20051;-47
2022/08/11 09:08:32;;;;;;;8.18;5.18;;;23.60;38.20;;;25.89;30.21;98056.25;5101502;28;20044;-45
2022/08/11 09:13:52;;;;;;;7.13;3.35;;;23.80;37.30;;;26.08;29.56;98051.38;5105811;28;20267;-46
2022/08/11 09:16:37;;;;;;;4.38;3.63;;;23.90;36.60;;;26.17;29.43;98061.84;5115131;28;20040;-44
2022/08/11 09:19:07;;;;;;;5.30;3.20;;;24.00;36.00;;;26.21;29.07;98050.19;5101707;28;20052;-43
2022/08/11 09:21:40;;;;;;;3.35;2.60;;;24.00;35.70;;;26.27;28.93;98046.44;5116353;28;20054;-45
2022/08/11 09:27:10;;;;;;;2.92;2.70;;;24.10;35.40;;;26.46;28.19;98046.97;5101280;28;20118;-47
2022/08/11 09:29:39;;;;;;;3.00;2.72;;;24.20;34.00;;;26.51;28.01;98047.00;5101045;28;20054;-47
2022/08/11 09:32:07;;;;;;;4.78;2.75;;;24.30;34.10;;;26.55;27.84;98051.97;5100533;28;20070;-44
2022/08/11 09:34:37;;;;;;;4.43;3.03;;;24.30;33.90;;;26.60;27.46;98043.84;5098520;28;20243;-47
2022/08/11 09:40:28;;;;;;;3.83;2.40;;;24.50;33.70;;;26.84;27.26;98047.97;5099732;28;20297;-43
2022/08/11 09:45:54;;;;;;;6.35;3.40;;;24.70;34.00;;;26.98;27.63;98047.56;5100590;28;20048;-45
2022/08/11 09:48:28;;;;;;;3.33;3.00;;;24.70;34.10;;;27.01;27.55;98047.06;5115567;28;20066;-46
2022/08/11 09:51:00;;;;;;;3.83;2.83;;;24.80;33.20;;;27.07;27.62;98059.69;5102141;28;20043;-43
2022/08/11 09:53:35;;;;;;;4.00;3.30;;;24.90;33.60;;;27.12;27.13;98048.78;5114841;28;20039;-45
2022/08/11 09:59:20;;;;;;;3.83;2.88;;;24.90;32.00;;;27.21;27.16;98041.75;5110580;28;20171;-45
2022/08/11 10:01:58;;;;;;;5.30;3.20;;;25.00;32.80;;;27.30;26.67;98033.97;5123823;28;20039;-48
2022/08/11 10:04:41;;;;;;;5.95;2.90;;;25.10;31.90;;;27.39;26.46;98046.03;5123314;28;20051;-45
2022/08/11 10:07:13;;;;;;;4.95;2.85;;;25.20;31.80;;;27.44;26.21;98046.09;5120021;28;20051;-45
2022/08/11 10:09:51;;;;;;;5.20;3.05;;;25.20;32.10;;;27.51;26.15;98037.69;5123295;28;20048;-43
2022/08/11 10:12:34;;;;;;;8.15;4.18;;;25.30;31.40;;;27.56;26.29;98031.44;5124356;28;20043;-46
2022/08/11 10:18:41;;;;;;;2.85;2.40;;;25.40;30.70;;;27.73;25.42;98034.81;5113642;28;20257;-44
2022/08/11 10:21:40;;;;;;;3.35;2.72;;;25.50;30.00;;;27.79;25.04;98028.31;5120586;28;20072;-48
2022/08/11 10:26:59;;;;;;;3.30;2.90;;;25.60;29.90;;;27.86;24.60;98022.63;5092050;28;20054;-43
2022/08/11 10:35:29;;;;;;;4.15;2.90;;;25.70;29.80;;;27.98;24.54;98016.97;5067109;28;20242;-47
2022/08/11 10:37:58;;;;;;;2.70;2.45;;;25.80;29.80;;;27.99;24.84;98013.94;5066434;28;20036;-46
2022/08/11 10:40:44;;;;;;;3.63;2.97;;;25.80;29.70;;;28.05;24.80;98023.00;5066579;28;20048;-43
2022/08/11 10:43:14;;;;;;;4.22;2.85;;;25.80;29.70;;;28.09;24.24;98010.44;5066975;28;20274;-44
2022/08/11 10:48:59;;;;;;;2.63;2.30;;;25.90;29.40;;;28.17;24.15;98001.75;5068037;28;20246;-44
2022/08/11 10:59:56;;;;;;;3.75;2.88;;;26.10;29.50;;;28.37;23.65;98005.66;5067135;28;20351;-45
2022/08/11 11:02:26;;;;;;;4.22;2.53;;;26.10;29.20;;;28.40;23.79;97988.66;5067831;28;20070;-46
2022/08/11 11:05:23;;;;;;;4.03;3.00;;;26.20;29.10;;;28.48;24.12;97993.66;5065574;28;20331;-50
2022/08/11 11:08:51;;;;;;;4.32;2.83;;;26.20;28.90;;;28.49;23.55;97998.00;5064208;28;20294;-45
2022/08/11 11:10:51;;;;;;;6.63;3.00;;;26.20;29.20;;;28.56;23.31;97997.81;5066746;28;20056;-47
2022/08/11 11:19:11;;;;;;;3.55;2.92;;;26.20;28.70;;;28.58;23.10;97974.53;5065693;28;20330;-44
2022/08/11 11:21:39;;;;;;;2.67;2.47;;;26.20;28.30;;;28.59;22.98;97972.59;5065698;28;20048;-43
2022/08/11 11:24:57;;;;;;;5.47;3.20;;;26.40;28.30;;;28.70;23.55;97971.53;5065933;28;20056;-45
2022/08/11 11:27:48;;;;;;;3.40;3.10;;;26.50;28.20;;;28.82;23.12;97969.34;5066087;28;20050;-43
2022/08/11 11:30:17;;;;;;;4.57;2.53;;;26.60;27.90;;;28.86;23.15;97958.69;5066545;28;20064;-45
2022/08/11 11:33:11;;;;;;;3.30;2.55;;;26.60;28.30;;;28.91;23.19;97963.38;5066495;28;20113;-43
2022/08/11 11:36:10;;;;;;;3.45;2.75;;;26.70;28.10;;;29.06;22.74;97966.94;5064758;28;20067;-47
2022/08/11 11:38:40;;;;;;;5.22;2.92;;;26.80;27.80;;;29.08;22.45;97972.13;5067365;28;20048;-45
2022/08/11 11:41:23;;;;;;;3.15;2.80;;;26.90;27.80;;;29.13;22.42;97966.66;5067047;28;20052;-43
2022/08/11 11:43:55;;;;;;;3.35;2.90;;;26.90;27.50;;;29.25;22.33;97947.19;5065636;28;20378;-43
2022/08/11 11:46:30;;;;;;;2.90;2.60;;;27.00;27.70;;;29.33;22.10;97948.56;5065921;28;20342;-48
2022/08/11 11:49:08;;;;;;;3.22;2.70;;;27.10;27.80;;;29.45;22.19;97946.38;5065792;28;20716;-45
2022/08/11 11:51:48;;;;;;;3.08;2.78;;;27.20;27.70;;;29.58;22.13;97947.72;5065793;28;20052;-44
2022/08/11 11:54:23;;;;;;;6.20;3.17;;;27.30;27.50;;;29.69;22.00;97943.84;5065593;28;20266;-43
2022/08/11 12:01:14;;;;;;;3.80;2.70;;;27.40;27.60;;;29.76;21.56;97943.56;5049077;28;20368;-42
2022/08/11 12:02:38;;;;;;;3.00;2.60;;;27.60;27.20;;;29.96;21.39;97934.47;5066531;28;20057;-48
2022/08/11 12:05:09;;;;;;;3.75;2.42;;;27.70;26.90;;;30.00;21.03;97935.56;5067464;28;20048;-47
2022/08/11 12:13:52;;;;;;;4.90;2.75;;;27.80;26.30;;;30.33;20.76;97931.31;5066141;28;20052;-45
2022/08/11 12:16:23;;;;;;;3.90;2.65;;;27.90;26.20;;;30.38;21.15;97935.94;5064540;28;20087;-44
2022/08/11 12:19:10;;;;;;;5.28;3.00;;;28.00;26.70;;;30.52;20.72;97922.41;5066947;28;20054;-47
2022/08/11 12:27:19;;;;;;;6.03;2.80;;;28.20;26.00;;;30.56;20.38;97928.97;5069608;28;20052;-47
2022/08/11 12:27:20;;;;;;;3.22;2.75;;;28.40;26.10;;;30.83;20.28;97928.50;5069267;28;20476;-43
2022/08/11 12:29:58;;;;;;;3.20;2.60;;;28.50;26.10;;;30.95;20.11;97920.75;5068468;28;20053;-47
2022/08/11 12:32:30;;;;;;;4.78;2.75;;;28.60;25.60;;;31.01;20.09;97914.09;5070009;28;20048;-49
2022/08/11 12:35:00;;;;;;;3.95;2.78;;;28.70;25.60;;;31.15;19.96;97921.69;5070556;28;20055;-47
2022/08/11 12:37:39;;;;;;;4.90;2.75;;;28.80;25.80;;;31.27;19.70;97910.28;5068809;28;20335;-47
2022/08/11 12:46:36;;;;;;;4.03;2.67;;;29.20;25.20;;;31.59;19.48;97909.72;5070021;28;20071;-46
2022/08/11 12:52:08;;;;;;;3.35;3.05;;;29.40;24.60;;;31.83;19.51;97901.47;5070291;28;20055;-47
2022/08/11 12:55:11;;;;;;;4.38;2.95;;;29.50;24.60;;;31.99;19.43;97897.41;5070370;28;20078;-45
2022/08/11 13:06:10;;;;;;;3.13;2.83;;;30.00;24.60;;;32.40;18.04;97887.81;5069996;28;20052;-44
2022/08/11 13:08:39;;;;;;;2.80;2.60;;;30.20;24.30;;;32.50;18.07;97879.38;5067325;28;20048;-46
2022/08/11 13:14:16;;;;;;;3.25;2.67;;;30.50;23.80;;;32.82;17.63;97872.28;5069223;28;20373;-48
2022/08/11 13:19:33;;;;;;;3.65;3.15;;;30.70;23.30;;;33.09;17.22;97868.78;5093786;28;21227;-47
2022/08/11 13:22:04;;;;;;;3.83;2.55;;;30.90;23.30;;;33.19;17.20;97861.50;5097656;28;20321;-47
2022/08/11 13:24:33;;;;;;;3.00;2.50;;;31.00;23.40;;;33.33;17.54;97857.63;5116567;28;20058;-45
2022/08/11 13:27:02;;;;;;;3.13;2.83;;;31.10;23.10;;;33.45;17.07;97864.59;5115808;28;20066;-47
2022/08/11 13:29:30;;;;;;;4.65;2.58;;;31.20;22.90;;;33.57;17.19;97866.84;5113758;28;20381;-44
2022/08/11 13:31:58;;;;;;;4.00;2.60;;;31.40;22.90;;;33.67;17.06;97863.91;5097673;28;20066;-47
2022/08/11 13:34:31;;;;;;;2.97;2.75;;;31.40;22.80;;;33.81;16.50;97859.22;5096561;28;20063;-44
2022/08/11 13:37:01;;;;;;;;;;;31.60;22.40;;;34.19;17.04;97860.91;5099982;28;20929;-47
2022/08/11 13:39:32;;;;;;;3.33;2.85;;;31.70;21.10;;;34.13;16.30;97844.41;5080984;28;19922;-46
2022/08/11 13:42:02;;;;;;;2.72;2.45;;;31.70;22.10;;;34.10;16.33;97850.56;5114893;28;20059;-46
2022/08/11 13:44:36;;;;;;;3.28;2.97;;;31.70;22.20;;;34.17;15.86;97849.38;5114911;28;20044;-45
2022/08/11 13:47:08;;;;;;;3.45;2.70;;;31.80;21.70;;;34.28;16.16;97848.00;5112590;28;20067;-43
2022/08/11 13:49:39;;;;;;;3.50;2.78;;;31.90;21.90;;;34.43;15.83;97847.66;5116045;28;20050;-50
2022/08/11 13:52:18;;;;;;;2.75;2.55;;;32.10;21.90;;;34.58;15.44;97840.13;5100911;28;20289;-47
2022/08/11 13:54:49;;;;;;;3.53;3.20;;;32.20;20.70;;;34.67;15.87;97827.22;5116161;28;20048;-43
2022/08/11 13:57:19;;;;;;;4.80;2.58;;;32.30;21.80;;;34.83;15.35;97839.50;5115838;28;20044;-47
2022/08/11 14:00:08;;;;;;;5.00;2.58;;;32.50;21.50;;;34.98;15.27;97838.28;5098446;28;20372;-48
2022/08/11 14:02:56;;;;;;;3.20;2.90;;;32.60;21.20;;;35.06;14.93;97837.53;5092878;28;20270;-49
2022/08/11 14:05:40;;;;;;;2.80;2.60;;;32.60;20.80;;;35.20;14.83;97833.88;5093989;28;20051;-46
2022/08/11 14:08:19;;;;;;;3.58;2.78;;;32.80;20.50;;;35.35;14.82;97829.88;5101146;28;20044;-47
2022/08/11 14:14:24;;;;;;;2.92;2.70;;;33.00;20.60;;;35.68;14.93;97822.06;5099329;28;20079;-45
2022/08/11 14:16:56;;;;;;;2.92;2.70;;;33.20;20.50;;;35.78;14.75;97820.94;5089523;28;20258;-47
2022/08/11 14:19:26;;;;;;;3.10;2.88;;;33.30;20.40;;;35.89;13.99;97813.97;5079295;28;20048;-45
2022/08/11 14:22:06;;;;;;;4.32;2.83;;;33.50;20.40;;;36.04;14.33;97802.41;5101050;28;20046;-44
2022/08/11 14:24:42;;;;;;;2.97;2.78;;;33.50;20.50;;;36.21;13.75;97807.16;5102234;28;20546;-47
2022/08/11 14:27:11;;;;;;;5.50;4.03;;;33.70;19.60;;;36.31;14.23;97814.31;5102052;28;20049;-43
2022/08/11 14:30:00;;;;;;;4.57;2.72;;;33.80;20.00;;;36.51;14.06;97807.31;5103444;28;20058;-46
2022/08/11 14:32:28;;;;;;;3.45;2.90;;;34.00;20.40;;;36.65;13.33;97804.41;5102473;28;20043;-48
2022/08/11 14:34:57;;;;;;;4.15;2.83;;;34.10;19.80;;;36.64;13.85;97800.81;5097668;28;20040;-44
2022/08/11 14:37:27;;;;;;;3.05;2.80;;;34.10;20.00;;;36.76;13.04;97802.91;5106863;28;20056;-47
2022/08/11 14:40:00;;;;;;;2.88;2.67;;;34.20;19.70;;;36.90;13.10;97793.59;5101388;28;20227;-48
2022/08/11 14:48:25;;;;;;;3.00;2.65;;;34.50;19.40;;;37.22;12.85;97784.69;5080129;28;20261;-47
2022/08/11 14:50:54;;;;;;;3.47;3.17;;;34.50;19.10;;;37.28;12.64;97788.06;5094244;28;20044;-47
2022/08/11 14:53:23;;;;;;;3.97;2.80;;;34.60;19.30;;;37.38;12.57;97789.66;5098048;28;20044;-45
2022/08/11 14:58:40;;;;;;;2.83;2.63;;;34.70;18.70;;;37.36;12.31;97780.84;5111670;28;20052;-45
2022/08/11 15:03:08;;;;;;;3.03;2.75;;;34.60;18.80;;;37.37;12.56;97769.41;5111412;27;20385;-47
2022/08/11 15:03:58;;;;;;;2.95;2.75;;;34.70;18.50;;;37.36;12.52;97773.34;5109266;28;20040;-46
2022/08/11 15:06:47;;;;;;;2.40;2.20;;;34.50;18.70;;;37.43;12.61;97772.81;5110690;28;20055;-46
2022/08/11 15:09:15;;;;;;;5.50;3.20;;;34.50;19.00;;;37.48;12.76;97769.03;5109331;28;20366;-48
2022/08/11 15:17:23;;;;;;;7.88;6.78;;;34.90;18.60;;;37.74;12.12;97772.50;5102384;28;20051;-48
2022/08/11 15:24:49;;;;;;;3.65;3.10;;;34.80;17.80;;;37.73;12.27;97759.78;5101755;28;20026;-48
2022/08/11 15:39:11;;;;;;;4.15;2.35;;;34.80;18.70;;;37.95;12.13;97755.84;5099266;28;20047;-48
2022/08/11 15:47:56;;;;;;;3.15;2.85;;;34.60;18.40;;;37.95;11.62;97739.16;5097121;28;20230;-47
2022/08/11 15:50:41;;;;;;;3.67;3.15;;;34.70;18.40;;;37.97;11.86;97736.06;5100074;28;20050;-47
2022/08/11 15:53:38;;;;;;;2.97;2.78;;;34.70;18.30;;;37.95;11.54;97735.59;5101012;28;20039;-46
2022/08/11 15:56:08;;;;;;;4.22;2.80;;;34.70;17.90;;;37.95;11.85;97730.84;5095256;28;20052;-50
2022/08/11 16:05:01;;;;;;;2.97;2.67;;;34.40;18.60;;;37.87;11.76;97733.69;5019549;28;20247;-47
2022/08/11 16:07:34;;;;;;;5.05;3.58;;;34.40;18.40;;;37.77;11.37;97740.47;5044275;28;20067;-47
2022/08/11 16:10:17;;;;;;;3.05;2.78;;;34.40;18.30;;;37.60;11.55;97733.06;5067476;28;20046;-48
2022/08/11 16:18:39;;;;;;;4.70;2.85;;;33.70;18.40;;;36.93;12.11;97726.31;5066713;28;20238;-44
2022/08/11 16:21:38;;;;;;;3.90;3.60;;;33.50;18.30;;;36.71;11.92;97724.63;5066936;28;20364;-47
2022/08/11 16:24:13;;;;;;;4.32;2.60;;;33.40;18.30;;;36.47;12.01;97723.19;5066493;28;20052;-48
2022/08/11 16:27:03;;;;;;;3.35;2.15;;;33.10;18.60;;;36.23;12.39;97720.94;5066388;28;20061;-45
2022/08/11 16:29:45;;;;;;;2.70;2.50;;;33.00;18.80;;;36.00;12.23;97715.56;5066159;28;20063;-45
2022/08/11 16:32:22;;;;;;;3.38;2.40;;;32.80;18.60;;;35.81;12.30;97723.34;5067088;28;20055;-50